sensor_id;sensor_type;location;lat;lon;timestamp;pressure;altitude;pressure_sealevel;temperature;humidity
7930;BME280;4010;42.698;23.124;2023-02-02T00:00:44;118349.16;;;-140.64;71.77
7930;BME280;4010;42.698;23.124;2023-02-02T00:03:12;118349.16;;;-140.64;71.58
7930;BME280;4010;42.698;23.124;2023-02-02T00:05:44;118349.16;;;-140.64;72.21
7930;BME280;4010;42.698;23.124;2023-02-02T00:08:11;118349.16;;;-140.64;71.91
7930;BME280;4010;42.698;23.124;2023-02-02T00:10:37;118349.16;;;-140.64;71.92
7930;BME280;4010;42.698;23.124;2023-02-02T00:13:04;118349.16;;;-140.64;72.66
7930;BME280;4010;42.698;23.124;2023-02-02T00:15:31;118349.16;;;-140.64;72.53
7930;BME280;4010;42.698;23.124;2023-02-02T00:17:57;118349.16;;;-140.64;73.01
7930;BME280;4010;42.698;23.124;2023-02-02T00:20:25;118349.16;;;-140.64;72.43
7930;BME280;4010;42.698;23.124;2023-02-02T00:22:52;118349.16;;;-140.64;72.03
7930;BME280;4010;42.698;23.124;2023-02-02T00:25:19;118349.16;;;-140.64;72.21
7930;BME280;4010;42.698;23.124;2023-02-02T00:27:46;118349.16;;;-140.64;71.14
7930;BME280;4010;42.698;23.124;2023-02-02T00:30:13;118349.16;;;-140.64;70.84
7930;BME280;4010;42.698;23.124;2023-02-02T00:32:40;118349.16;;;-140.64;70.60
7930;BME280;4010;42.698;23.124;2023-02-02T00:35:08;118349.16;;;-140.64;70.82
7930;BME280;4010;42.698;23.124;2023-02-02T00:37:36;118349.16;;;-140.64;70.84
7930;BME280;4010;42.698;23.124;2023-02-02T00:40:03;118349.16;;;-140.64;71.07
7930;BME280;4010;42.698;23.124;2023-02-02T00:42:30;118349.16;;;-140.64;71.34
7930;BME280;4010;42.698;23.124;2023-02-02T00:44:57;118349.16;;;-140.64;71.48
7930;BME280;4010;42.698;23.124;2023-02-02T00:47:42;118349.16;;;-140.64;71.87
7930;BME280;4010;42.698;23.124;2023-02-02T00:50:11;118349.16;;;-140.64;71.87
7930;BME280;4010;42.698;23.124;2023-02-02T00:52:39;118349.16;;;-140.64;71.90
7930;BME280;4010;42.698;23.124;2023-02-02T00:55:07;118349.16;;;-140.64;71.98
7930;BME280;4010;42.698;23.124;2023-02-02T00:57:34;118349.16;;;-140.64;71.71
7930;BME280;4010;42.698;23.124;2023-02-02T01:00:01;118349.16;;;-140.64;71.95
7930;BME280;4010;42.698;23.124;2023-02-02T01:02:28;118349.16;;;-140.64;72.03
7930;BME280;4010;42.698;23.124;2023-02-02T01:04:54;118349.16;;;-140.64;72.52
7930;BME280;4010;42.698;23.124;2023-02-02T01:07:21;118349.16;;;-140.64;72.93
7930;BME280;4010;42.698;23.124;2023-02-02T01:09:49;118349.16;;;-140.64;73.42
7930;BME280;4010;42.698;23.124;2023-02-02T01:12:16;118349.16;;;-140.64;73.67
7930;BME280;4010;42.698;23.124;2023-02-02T01:14:42;118349.16;;;-140.64;74.58
7930;BME280;4010;42.698;23.124;2023-02-02T01:17:09;118349.16;;;-140.64;74.81
7930;BME280;4010;42.698;23.124;2023-02-02T01:19:36;118349.16;;;-140.64;75.68
7930;BME280;4010;42.698;23.124;2023-02-02T01:22:03;118349.16;;;-140.64;75.69
7930;BME280;4010;42.698;23.124;2023-02-02T01:24:29;118349.16;;;-140.64;75.56
7930;BME280;4010;42.698;23.124;2023-02-02T01:26:57;118349.16;;;-140.64;75.61
7930;BME280;4010;42.698;23.124;2023-02-02T01:29:24;118349.16;;;-140.64;76.05
7930;BME280;4010;42.698;23.124;2023-02-02T01:31:51;118349.16;;;-140.64;75.98
7930;BME280;4010;42.698;23.124;2023-02-02T01:34:18;118349.16;;;-140.64;76.16
7930;BME280;4010;42.698;23.124;2023-02-02T01:36:45;118349.16;;;-140.64;76.80
7930;BME280;4010;42.698;23.124;2023-02-02T01:39:11;118349.16;;;-140.64;77.41
7930;BME280;4010;42.698;23.124;2023-02-02T01:41:39;118349.16;;;-140.64;77.32
7930;BME280;4010;42.698;23.124;2023-02-02T01:47:07;118349.16;;;-140.64;78.47
7930;BME280;4010;42.698;23.124;2023-02-02T01:49:34;118349.16;;;-140.64;78.44
7930;BME280;4010;42.698;23.124;2023-02-02T01:52:03;118349.16;;;-140.64;79.04
7930;BME280;4010;42.698;23.124;2023-02-02T01:54:33;118349.16;;;-140.64;79.51
7930;BME280;4010;42.698;23.124;2023-02-02T01:57:05;118349.16;;;-140.64;79.60
7930;BME280;4010;42.698;23.124;2023-02-02T01:59:33;118349.16;;;-140.64;79.02
7930;BME280;4010;42.698;23.124;2023-02-02T02:02:01;118349.16;;;-140.64;79.51
7930;BME280;4010;42.698;23.124;2023-02-02T02:04:30;118349.16;;;-140.64;80.04
7930;BME280;4010;42.698;23.124;2023-02-02T02:06:58;118349.16;;;-140.64;80.17
7930;BME280;4010;42.698;23.124;2023-02-02T02:09:25;118349.16;;;-140.64;80.49
7930;BME280;4010;42.698;23.124;2023-02-02T02:11:52;118349.16;;;-140.64;80.64
7930;BME280;4010;42.698;23.124;2023-02-02T02:14:20;118349.16;;;-140.64;81.25
7930;BME280;4010;42.698;23.124;2023-02-02T02:17:13;118349.16;;;-140.64;80.64
7930;BME280;4010;42.698;23.124;2023-02-02T02:20:09;118349.16;;;-140.64;81.08
7930;BME280;4010;42.698;23.124;2023-02-02T02:23:18;118349.16;;;-140.64;80.97
7930;BME280;4010;42.698;23.124;2023-02-02T02:26:26;118349.16;;;-140.64;81.31
7930;BME280;4010;42.698;23.124;2023-02-02T02:29:10;118349.16;;;-140.64;81.68
7930;BME280;4010;42.698;23.124;2023-02-02T02:32:03;118349.16;;;-140.64;81.78
7930;BME280;4010;42.698;23.124;2023-02-02T02:34:44;118349.16;;;-140.64;82.24
7930;BME280;4010;42.698;23.124;2023-02-02T02:37:17;118349.16;;;-140.64;82.71
7930;BME280;4010;42.698;23.124;2023-02-02T02:39:50;118349.16;;;-140.64;82.60
7930;BME280;4010;42.698;23.124;2023-02-02T02:42:22;118349.16;;;-140.64;82.41
7930;BME280;4010;42.698;23.124;2023-02-02T02:44:52;118349.16;;;-140.64;82.16
7930;BME280;4010;42.698;23.124;2023-02-02T02:47:21;118349.16;;;-140.64;81.66
7930;BME280;4010;42.698;23.124;2023-02-02T02:49:48;118349.16;;;-140.64;80.20
7930;BME280;4010;42.698;23.124;2023-02-02T02:52:15;118349.16;;;-140.64;80.18
7930;BME280;4010;42.698;23.124;2023-02-02T02:54:45;118349.16;;;-140.64;79.95
7930;BME280;4010;42.698;23.124;2023-02-02T02:57:35;118349.16;;;-140.64;80.32
7930;BME280;4010;42.698;23.124;2023-02-02T03:00:15;118349.16;;;-140.64;79.69
7930;BME280;4010;42.698;23.124;2023-02-02T03:02:49;118349.16;;;-140.64;79.72
7930;BME280;4010;42.698;23.124;2023-02-02T03:05:29;118349.16;;;-140.64;79.94
7930;BME280;4010;42.698;23.124;2023-02-02T03:08:04;118349.16;;;-140.64;80.17
7930;BME280;4010;42.698;23.124;2023-02-02T03:10:34;118349.16;;;-140.64;80.20
7930;BME280;4010;42.698;23.124;2023-02-02T03:13:06;118349.16;;;-140.64;80.46
7930;BME280;4010;42.698;23.124;2023-02-02T03:15:33;118349.16;;;-140.64;80.30
7930;BME280;4010;42.698;23.124;2023-02-02T03:18:02;118349.16;;;-140.64;80.39
7930;BME280;4010;42.698;23.124;2023-02-02T03:20:29;118349.16;;;-140.64;80.41
7930;BME280;4010;42.698;23.124;2023-02-02T03:22:55;118349.16;;;-140.64;80.47
7930;BME280;4010;42.698;23.124;2023-02-02T03:25:22;118349.16;;;-140.64;80.30
7930;BME280;4010;42.698;23.124;2023-02-02T03:27:49;118349.16;;;-140.64;80.46
7930;BME280;4010;42.698;23.124;2023-02-02T03:30:16;118349.16;;;-140.64;80.65
7930;BME280;4010;42.698;23.124;2023-02-02T03:32:43;118349.16;;;-140.64;80.32
7930;BME280;4010;42.698;23.124;2023-02-02T03:35:11;118349.16;;;-140.64;79.90
7930;BME280;4010;42.698;23.124;2023-02-02T03:37:38;118349.16;;;-140.64;79.98
7930;BME280;4010;42.698;23.124;2023-02-02T03:40:05;118349.16;;;-140.64;80.25
7930;BME280;4010;42.698;23.124;2023-02-02T03:42:32;118349.16;;;-140.64;80.33
7930;BME280;4010;42.698;23.124;2023-02-02T03:44:58;118349.16;;;-140.64;81.15
7930;BME280;4010;42.698;23.124;2023-02-02T03:47:27;118349.16;;;-140.64;81.46
7930;BME280;4010;42.698;23.124;2023-02-02T03:49:53;118349.16;;;-140.64;81.06
7930;BME280;4010;42.698;23.124;2023-02-02T03:52:22;118349.16;;;-140.64;81.40
7930;BME280;4010;42.698;23.124;2023-02-02T03:54:48;118349.16;;;-140.64;81.87
7930;BME280;4010;42.698;23.124;2023-02-02T03:57:15;118349.16;;;-140.64;81.88
7930;BME280;4010;42.698;23.124;2023-02-02T03:59:42;118349.16;;;-140.64;82.06
7930;BME280;4010;42.698;23.124;2023-02-02T04:02:09;118349.16;;;-140.64;82.51
7930;BME280;4010;42.698;23.124;2023-02-02T04:04:35;118349.16;;;-140.64;82.62
7930;BME280;4010;42.698;23.124;2023-02-02T04:07:02;118349.16;;;-140.64;82.15
7930;BME280;4010;42.698;23.124;2023-02-02T04:09:30;118349.16;;;-140.64;82.18
7930;BME280;4010;42.698;23.124;2023-02-02T04:11:57;118349.16;;;-140.64;82.36
7930;BME280;4010;42.698;23.124;2023-02-02T04:14:23;118349.16;;;-140.64;82.55
7930;BME280;4010;42.698;23.124;2023-02-02T04:16:50;118349.16;;;-140.64;83.37
7930;BME280;4010;42.698;23.124;2023-02-02T04:19:17;118349.16;;;-140.64;83.70
7930;BME280;4010;42.698;23.124;2023-02-02T04:21:44;118349.16;;;-140.64;83.57
7930;BME280;4010;42.698;23.124;2023-02-02T04:24:12;118349.16;;;-140.64;84.24
7930;BME280;4010;42.698;23.124;2023-02-02T04:26:40;118349.16;;;-140.64;84.53
7930;BME280;4010;42.698;23.124;2023-02-02T04:29:07;118349.16;;;-140.64;84.56
7930;BME280;4010;42.698;23.124;2023-02-02T04:31:34;118349.16;;;-140.64;84.90
7930;BME280;4010;42.698;23.124;2023-02-02T04:34:01;118349.16;;;-140.64;85.79
7930;BME280;4010;42.698;23.124;2023-02-02T04:36:28;118349.16;;;-140.64;87.17
7930;BME280;4010;42.698;23.124;2023-02-02T04:38:55;118349.16;;;-140.64;87.01
7930;BME280;4010;42.698;23.124;2023-02-02T04:41:21;118349.16;;;-140.64;86.85
7930;BME280;4010;42.698;23.124;2023-02-02T04:43:50;118349.16;;;-140.64;86.57
7930;BME280;4010;42.698;23.124;2023-02-02T04:46:16;118349.16;;;-140.64;86.42
7930;BME280;4010;42.698;23.124;2023-02-02T04:48:43;118349.16;;;-140.64;86.54
7930;BME280;4010;42.698;23.124;2023-02-02T04:51:11;118349.16;;;-140.64;85.62
7930;BME280;4010;42.698;23.124;2023-02-02T04:53:40;118349.16;;;-140.64;85.25
7930;BME280;4010;42.698;23.124;2023-02-02T04:56:08;118349.16;;;-140.64;85.01
7930;BME280;4010;42.698;23.124;2023-02-02T04:58:35;118349.16;;;-140.64;85.60
7930;BME280;4010;42.698;23.124;2023-02-02T05:01:09;118349.16;;;-140.64;85.69
7930;BME280;4010;42.698;23.124;2023-02-02T05:03:36;118349.16;;;-140.64;85.21
7930;BME280;4010;42.698;23.124;2023-02-02T05:06:03;118349.16;;;-140.64;84.72
7930;BME280;4010;42.698;23.124;2023-02-02T05:08:30;118349.16;;;-140.64;84.07
7930;BME280;4010;42.698;23.124;2023-02-02T05:10:57;118349.16;;;-140.64;84.23
7930;BME280;4010;42.698;23.124;2023-02-02T05:13:24;118349.16;;;-140.64;83.80
7930;BME280;4010;42.698;23.124;2023-02-02T05:15:52;118349.16;;;-140.64;83.60
7930;BME280;4010;42.698;23.124;2023-02-02T05:18:20;118349.16;;;-140.64;83.36
7930;BME280;4010;42.698;23.124;2023-02-02T05:20:46;118349.16;;;-140.64;82.94
7930;BME280;4010;42.698;23.124;2023-02-02T05:23:13;118349.16;;;-140.64;82.72
7930;BME280;4010;42.698;23.124;2023-02-02T05:25:40;118349.16;;;-140.64;82.60
7930;BME280;4010;42.698;23.124;2023-02-02T05:28:06;118349.16;;;-140.64;82.56
7930;BME280;4010;42.698;23.124;2023-02-02T05:30:33;118349.16;;;-140.64;82.43
7930;BME280;4010;42.698;23.124;2023-02-02T05:33:00;118349.16;;;-140.64;82.09
7930;BME280;4010;42.698;23.124;2023-02-02T05:35:28;118349.16;;;-140.64;82.11
7930;BME280;4010;42.698;23.124;2023-02-02T05:37:54;118349.16;;;-140.64;82.13
7930;BME280;4010;42.698;23.124;2023-02-02T05:40:21;118349.16;;;-140.64;82.26
7930;BME280;4010;42.698;23.124;2023-02-02T05:42:48;118349.16;;;-140.64;81.95
7930;BME280;4010;42.698;23.124;2023-02-02T05:45:14;118349.16;;;-140.64;82.02
7930;BME280;4010;42.698;23.124;2023-02-02T05:47:41;118349.16;;;-140.64;81.45
7930;BME280;4010;42.698;23.124;2023-02-02T05:50:09;118349.16;;;-140.64;81.45
7930;BME280;4010;42.698;23.124;2023-02-02T05:52:38;118349.16;;;-140.64;81.41
7930;BME280;4010;42.698;23.124;2023-02-02T05:55:07;118349.16;;;-140.64;80.57
7930;BME280;4010;42.698;23.124;2023-02-02T05:57:34;118349.16;;;-140.64;80.41
7930;BME280;4010;42.698;23.124;2023-02-02T06:00:02;118349.16;;;-140.64;80.49
7930;BME280;4010;42.698;23.124;2023-02-02T06:02:29;118349.16;;;-140.64;79.05
7930;BME280;4010;42.698;23.124;2023-02-02T06:04:56;118349.16;;;-140.64;78.31
7930;BME280;4010;42.698;23.124;2023-02-02T06:07:22;118349.16;;;-140.64;78.04
7930;BME280;4010;42.698;23.124;2023-02-02T06:09:50;118349.16;;;-140.64;77.76
7930;BME280;4010;42.698;23.124;2023-02-02T06:12:17;118349.16;;;-140.64;77.53
7930;BME280;4010;42.698;23.124;2023-02-02T06:14:44;118349.16;;;-140.64;76.81
7930;BME280;4010;42.698;23.124;2023-02-02T06:17:10;118349.16;;;-140.64;76.21
7930;BME280;4010;42.698;23.124;2023-02-02T06:19:37;118349.16;;;-140.64;76.21
7930;BME280;4010;42.698;23.124;2023-02-02T06:22:04;118349.16;;;-140.64;76.04
7930;BME280;4010;42.698;23.124;2023-02-02T06:24:31;118349.16;;;-140.64;75.89
7930;BME280;4010;42.698;23.124;2023-02-02T06:26:59;118349.16;;;-140.64;76.14
7930;BME280;4010;42.698;23.124;2023-02-02T06:29:26;118349.16;;;-140.64;75.06
7930;BME280;4010;42.698;23.124;2023-02-02T06:31:52;118349.16;;;-140.64;74.26
7930;BME280;4010;42.698;23.124;2023-02-02T06:34:19;118349.16;;;-140.64;73.44
7930;BME280;4010;42.698;23.124;2023-02-02T06:36:46;118349.16;;;-140.64;73.47
7930;BME280;4010;42.698;23.124;2023-02-02T06:39:13;118349.16;;;-140.64;73.15
7930;BME280;4010;42.698;23.124;2023-02-02T06:41:39;118349.16;;;-140.64;72.59
7930;BME280;4010;42.698;23.124;2023-02-02T06:44:10;118349.16;;;-140.64;72.50
7930;BME280;4010;42.698;23.124;2023-02-02T06:46:37;118349.16;;;-140.64;72.40
7930;BME280;4010;42.698;23.124;2023-02-02T06:49:04;118349.16;;;-140.64;72.57
7930;BME280;4010;42.698;23.124;2023-02-02T06:51:30;118349.16;;;-140.64;72.61
7930;BME280;4010;42.698;23.124;2023-02-02T06:53:57;118349.16;;;-140.64;72.22
7930;BME280;4010;42.698;23.124;2023-02-02T06:56:24;118349.16;;;-140.64;71.71
7930;BME280;4010;42.698;23.124;2023-02-02T06:58:50;118349.16;;;-140.64;71.78
7930;BME280;4010;42.698;23.124;2023-02-02T07:01:18;118349.16;;;-140.64;71.49
7930;BME280;4010;42.698;23.124;2023-02-02T07:03:47;118349.16;;;-140.64;71.16
7930;BME280;4010;42.698;23.124;2023-02-02T07:06:15;118349.16;;;-140.64;70.82
7930;BME280;4010;42.698;23.124;2023-02-02T07:08:42;118349.16;;;-140.64;70.76
7930;BME280;4010;42.698;23.124;2023-02-02T07:11:10;118349.16;;;-140.64;70.44
7930;BME280;4010;42.698;23.124;2023-02-02T07:13:37;118349.16;;;-140.64;70.48
7930;BME280;4010;42.698;23.124;2023-02-02T07:16:04;118349.16;;;-140.64;69.85
7930;BME280;4010;42.698;23.124;2023-02-02T07:18:33;118349.16;;;-140.64;70.22
7930;BME280;4010;42.698;23.124;2023-02-02T07:21:01;118349.16;;;-140.64;70.12
7930;BME280;4010;42.698;23.124;2023-02-02T07:23:28;118349.16;;;-140.64;69.30
7930;BME280;4010;42.698;23.124;2023-02-02T07:26:02;118349.16;;;-140.64;68.68
7930;BME280;4010;42.698;23.124;2023-02-02T07:28:30;118349.16;;;-140.64;68.59
7930;BME280;4010;42.698;23.124;2023-02-02T07:30:56;118349.16;;;-140.64;68.47
7930;BME280;4010;42.698;23.124;2023-02-02T07:33:23;118349.16;;;-140.64;68.00
7930;BME280;4010;42.698;23.124;2023-02-02T07:35:52;118349.16;;;-140.64;67.44
7930;BME280;4010;42.698;23.124;2023-02-02T07:38:18;118349.16;;;-140.64;66.52
7930;BME280;4010;42.698;23.124;2023-02-02T07:40:45;118349.16;;;-140.64;67.05
7930;BME280;4010;42.698;23.124;2023-02-02T07:43:12;118349.16;;;-140.64;66.39
7930;BME280;4010;42.698;23.124;2023-02-02T07:45:39;118349.16;;;-140.64;66.00
7930;BME280;4010;42.698;23.124;2023-02-02T07:48:05;118349.16;;;-140.64;66.20
7930;BME280;4010;42.698;23.124;2023-02-02T07:50:32;118349.16;;;-140.64;65.94
7930;BME280;4010;42.698;23.124;2023-02-02T07:53:00;118349.16;;;-140.64;66.92
7930;BME280;4010;42.698;23.124;2023-02-02T07:55:27;118349.16;;;-140.64;66.16
7930;BME280;4010;42.698;23.124;2023-02-02T07:57:53;118349.16;;;-140.64;66.55
7930;BME280;4010;42.698;23.124;2023-02-02T08:00:23;118349.16;;;-140.64;66.43
7930;BME280;4010;42.698;23.124;2023-02-02T08:02:50;118349.16;;;-140.64;65.50
7930;BME280;4010;42.698;23.124;2023-02-02T08:05:17;118349.16;;;-140.64;63.16
7930;BME280;4010;42.698;23.124;2023-02-02T08:07:43;118349.16;;;-140.64;62.58
7930;BME280;4010;42.698;23.124;2023-02-02T08:10:11;118349.16;;;-140.64;62.94
7930;BME280;4010;42.698;23.124;2023-02-02T08:12:38;118349.16;;;-140.64;63.86
7930;BME280;4010;42.698;23.124;2023-02-02T08:15:05;118349.16;;;-140.64;63.05
7930;BME280;4010;42.698;23.124;2023-02-02T08:17:32;118349.16;;;-140.64;64.03
7930;BME280;4010;42.698;23.124;2023-02-02T08:19:59;118349.16;;;-140.64;63.58
7930;BME280;4010;42.698;23.124;2023-02-02T08:22:25;118349.16;;;-140.64;63.07
7930;BME280;4010;42.698;23.124;2023-02-02T08:24:52;118349.16;;;-140.64;62.35
7930;BME280;4010;42.698;23.124;2023-02-02T08:27:20;118349.16;;;-140.64;61.67
7930;BME280;4010;42.698;23.124;2023-02-02T08:29:47;118349.16;;;-140.64;61.39
7930;BME280;4010;42.698;23.124;2023-02-02T08:32:14;118349.16;;;-140.64;61.70
7930;BME280;4010;42.698;23.124;2023-02-02T08:34:41;118349.16;;;-140.64;62.36
7930;BME280;4010;42.698;23.124;2023-02-02T08:37:07;118349.16;;;-140.64;62.60
7930;BME280;4010;42.698;23.124;2023-02-02T08:39:34;118349.16;;;-140.64;61.88
7930;BME280;4010;42.698;23.124;2023-02-02T08:42:00;118349.16;;;-140.64;61.78
7930;BME280;4010;42.698;23.124;2023-02-02T08:44:28;118349.16;;;-140.64;61.91
7930;BME280;4010;42.698;23.124;2023-02-02T08:46:55;118349.16;;;-140.64;62.69
7930;BME280;4010;42.698;23.124;2023-02-02T08:49:22;118349.16;;;-140.64;63.31
7930;BME280;4010;42.698;23.124;2023-02-02T08:51:48;118349.16;;;-140.64;63.72
7930;BME280;4010;42.698;23.124;2023-02-02T08:54:15;118349.16;;;-140.64;63.56
7930;BME280;4010;42.698;23.124;2023-02-02T08:56:42;118349.16;;;-140.64;64.63
7930;BME280;4010;42.698;23.124;2023-02-02T08:59:08;118349.16;;;-140.64;65.01
7930;BME280;4010;42.698;23.124;2023-02-02T09:01:36;118349.16;;;-140.64;65.15
7930;BME280;4010;42.698;23.124;2023-02-02T09:04:04;118349.16;;;-140.64;65.56
7930;BME280;4010;42.698;23.124;2023-02-02T09:06:33;118349.16;;;-140.64;64.08
7930;BME280;4010;42.698;23.124;2023-02-02T09:09:00;118349.16;;;-140.64;64.77
7930;BME280;4010;42.698;23.124;2023-02-02T09:11:27;118349.16;;;-140.64;64.99
7930;BME280;4010;42.698;23.124;2023-02-02T09:13:55;118349.16;;;-140.64;64.37
7930;BME280;4010;42.698;23.124;2023-02-02T09:16:23;118349.16;;;-140.64;64.24
7930;BME280;4010;42.698;23.124;2023-02-02T09:18:52;118349.16;;;-140.64;65.34
7930;BME280;4010;42.698;23.124;2023-02-02T09:21:19;118349.16;;;-140.64;65.26
7930;BME280;4010;42.698;23.124;2023-02-02T09:23:47;118349.16;;;-140.64;64.11
7930;BME280;4010;42.698;23.124;2023-02-02T09:26:16;118349.16;;;-140.64;63.89
7930;BME280;4010;42.698;23.124;2023-02-02T09:28:45;118349.16;;;-140.64;64.71
7930;BME280;4010;42.698;23.124;2023-02-02T09:31:12;118349.16;;;-140.64;64.22
7930;BME280;4010;42.698;23.124;2023-02-02T09:33:40;118349.16;;;-140.64;64.47
7930;BME280;4010;42.698;23.124;2023-02-02T09:36:09;118349.16;;;-140.64;63.75
7930;BME280;4010;42.698;23.124;2023-02-02T09:38:37;118349.16;;;-140.64;63.39
7930;BME280;4010;42.698;23.124;2023-02-02T09:41:38;118349.16;;;-140.64;63.82
7930;BME280;4010;42.698;23.124;2023-02-02T09:44:17;118349.16;;;-140.64;63.87
7930;BME280;4010;42.698;23.124;2023-02-02T09:46:55;118349.16;;;-140.64;63.44
7930;BME280;4010;42.698;23.124;2023-02-02T09:49:30;118349.16;;;-140.64;63.43
7930;BME280;4010;42.698;23.124;2023-02-02T09:52:02;118349.16;;;-140.64;63.05
7930;BME280;4010;42.698;23.124;2023-02-02T09:54:34;118349.16;;;-140.64;63.13
7930;BME280;4010;42.698;23.124;2023-02-02T09:57:07;118349.16;;;-140.64;62.28
7930;BME280;4010;42.698;23.124;2023-02-02T09:59:39;118349.16;;;-140.64;62.40
7930;BME280;4010;42.698;23.124;2023-02-02T10:02:17;118349.16;;;-140.64;61.41
7930;BME280;4010;42.698;23.124;2023-02-02T10:04:49;118349.16;;;-140.64;61.31
7930;BME280;4010;42.698;23.124;2023-02-02T10:07:25;118349.16;;;-140.64;62.59
7930;BME280;4010;42.698;23.124;2023-02-02T10:09:57;118349.16;;;-140.64;62.94
7930;BME280;4010;42.698;23.124;2023-02-02T10:12:32;118349.16;;;-140.64;62.61
7930;BME280;4010;42.698;23.124;2023-02-02T10:15:04;118349.16;;;-140.64;62.64
7930;BME280;4010;42.698;23.124;2023-02-02T10:17:40;118349.16;;;-140.64;62.44
7930;BME280;4010;42.698;23.124;2023-02-02T10:20:18;118349.16;;;-140.64;61.60
7930;BME280;4010;42.698;23.124;2023-02-02T10:22:48;118349.16;;;-140.64;58.64
7930;BME280;4010;42.698;23.124;2023-02-02T10:25:16;118349.16;;;-140.64;58.79
7930;BME280;4010;42.698;23.124;2023-02-02T10:27:49;118349.16;;;-140.64;59.17
7930;BME280;4010;42.698;23.124;2023-02-02T10:30:26;118349.16;;;-140.64;57.41
7930;BME280;4010;42.698;23.124;2023-02-02T10:33:02;118349.16;;;-140.64;58.13
7930;BME280;4010;42.698;23.124;2023-02-02T10:35:35;118349.16;;;-140.64;56.83
7930;BME280;4010;42.698;23.124;2023-02-02T10:38:14;118349.16;;;-140.64;56.21
7930;BME280;4010;42.698;23.124;2023-02-02T10:40:51;118349.16;;;-140.64;56.05
7930;BME280;4010;42.698;23.124;2023-02-02T10:43:45;118349.16;;;-140.64;56.55
7930;BME280;4010;42.698;23.124;2023-02-02T10:46:19;118349.16;;;-140.64;57.95
7930;BME280;4010;42.698;23.124;2023-02-02T10:48:48;118349.16;;;-140.64;57.46
7930;BME280;4010;42.698;23.124;2023-02-02T10:51:20;118349.16;;;-140.64;57.38
7930;BME280;4010;42.698;23.124;2023-02-02T10:53:52;118349.16;;;-140.64;58.36
7930;BME280;4010;42.698;23.124;2023-02-02T10:56:22;118349.16;;;-140.64;58.00
7930;BME280;4010;42.698;23.124;2023-02-02T10:58:55;118349.16;;;-140.64;58.28
7930;BME280;4010;42.698;23.124;2023-02-02T11:01:23;118349.16;;;-140.64;59.50
7930;BME280;4010;42.698;23.124;2023-02-02T11:03:50;118349.16;;;-140.64;59.63
7930;BME280;4010;42.698;23.124;2023-02-02T11:06:37;118349.16;;;-140.64;59.44
7930;BME280;4010;42.698;23.124;2023-02-02T11:09:20;118349.16;;;-140.64;59.36
7930;BME280;4010;42.698;23.124;2023-02-02T11:11:50;118349.16;;;-140.64;59.26
7930;BME280;4010;42.698;23.124;2023-02-02T11:14:28;118349.16;;;-140.64;58.75
7930;BME280;4010;42.698;23.124;2023-02-02T11:17:00;118349.16;;;-140.64;58.26
7930;BME280;4010;42.698;23.124;2023-02-02T11:19:29;118349.16;;;-140.64;58.28
7930;BME280;4010;42.698;23.124;2023-02-02T11:21:57;118349.16;;;-140.64;58.65
7930;BME280;4010;42.698;23.124;2023-02-02T11:24:28;118349.16;;;-140.64;57.16
7930;BME280;4010;42.698;23.124;2023-02-02T11:26:58;118349.16;;;-140.64;55.92
7930;BME280;4010;42.698;23.124;2023-02-02T11:29:28;118349.16;;;-140.64;55.01
7930;BME280;4010;42.698;23.124;2023-02-02T11:31:55;118349.16;;;-140.64;56.25
7930;BME280;4010;42.698;23.124;2023-02-02T11:34:23;118349.16;;;-140.64;55.65
7930;BME280;4010;42.698;23.124;2023-02-02T11:37:03;118349.16;;;-140.64;54.42
7930;BME280;4010;42.698;23.124;2023-02-02T11:39:37;118349.16;;;-140.64;53.91
7930;BME280;4010;42.698;23.124;2023-02-02T11:42:05;118349.16;;;-140.64;55.03
7930;BME280;4010;42.698;23.124;2023-02-02T11:44:33;118349.16;;;-140.64;54.05
7930;BME280;4010;42.698;23.124;2023-02-02T11:47:02;118349.16;;;-140.64;53.95
7930;BME280;4010;42.698;23.124;2023-02-02T11:49:32;118349.16;;;-140.64;53.65
7930;BME280;4010;42.698;23.124;2023-02-02T11:52:05;118349.16;;;-140.64;53.40
7930;BME280;4010;42.698;23.124;2023-02-02T11:54:34;118349.16;;;-140.64;53.26
7930;BME280;4010;42.698;23.124;2023-02-02T11:57:07;118349.16;;;-140.64;51.91
7930;BME280;4010;42.698;23.124;2023-02-02T11:59:36;118349.16;;;-140.64;51.87
7930;BME280;4010;42.698;23.124;2023-02-02T12:02:24;118349.16;;;-140.64;51.80
7930;BME280;4010;42.698;23.124;2023-02-02T12:04:53;118349.16;;;-140.64;51.37
7930;BME280;4010;42.698;23.124;2023-02-02T12:07:26;118349.16;;;-140.64;50.16
7930;BME280;4010;42.698;23.124;2023-02-02T12:09:56;118349.16;;;-140.64;49.89
7930;BME280;4010;42.698;23.124;2023-02-02T12:12:38;118349.16;;;-140.64;49.82
7930;BME280;4010;42.698;23.124;2023-02-02T12:15:16;118349.16;;;-140.64;51.29
7930;BME280;4010;42.698;23.124;2023-02-02T12:17:51;118349.16;;;-140.64;50.29
7930;BME280;4010;42.698;23.124;2023-02-02T12:20:30;118349.16;;;-140.64;49.69
7930;BME280;4010;42.698;23.124;2023-02-02T12:23:21;118349.16;;;-140.64;50.72
7930;BME280;4010;42.698;23.124;2023-02-02T12:26:01;118349.16;;;-140.64;50.30
7930;BME280;4010;42.698;23.124;2023-02-02T12:28:44;118349.16;;;-140.64;50.04
7930;BME280;4010;42.698;23.124;2023-02-02T12:31:22;118349.16;;;-140.64;50.28
7930;BME280;4010;42.698;23.124;2023-02-02T12:33:55;118349.16;;;-140.64;48.95
7930;BME280;4010;42.698;23.124;2023-02-02T12:36:38;118349.16;;;-140.64;48.11
7930;BME280;4010;42.698;23.124;2023-02-02T12:39:19;118349.16;;;-140.64;49.03
7930;BME280;4010;42.698;23.124;2023-02-02T12:44:51;118349.16;;;-140.64;49.26
7930;BME280;4010;42.698;23.124;2023-02-02T12:47:26;118349.16;;;-140.64;49.29
7930;BME280;4010;42.698;23.124;2023-02-02T12:50:03;118349.16;;;-140.64;49.14
7930;BME280;4010;42.698;23.124;2023-02-02T12:52:42;118349.16;;;-140.64;48.64
7930;BME280;4010;42.698;23.124;2023-02-02T12:55:21;118349.16;;;-140.64;48.71
7930;BME280;4010;42.698;23.124;2023-02-02T12:57:55;118349.16;;;-140.64;48.69
7930;BME280;4010;42.698;23.124;2023-02-02T13:00:47;118349.16;;;-140.64;48.14